createdAt,value
2023-05-09T00:00:17.883Z,12.57
2023-05-09T00:05:22.529Z,12.32
2023-05-09T00:15:29.740Z,11.88
2023-05-09T00:20:34.939Z,11.37
2023-05-09T00:25:48.267Z,11.98
2023-05-09T00:30:52.171Z,11.43
2023-05-09T00:35:55.902Z,10.80
2023-05-09T00:41:00.839Z,11.10
2023-05-09T00:46:03.624Z,10.75
2023-05-09T00:51:09.165Z,10.68
2023-05-09T00:56:13.718Z,10.40
2023-05-09T01:01:17.867Z,10.75
2023-05-09T01:06:34.049Z,9.50
2023-05-09T01:12:05.149Z,9.85
2023-05-09T01:17:24.199Z,9.75
2023-05-09T01:22:32.895Z,9.75
2023-05-09T01:27:48.207Z,9.80
2023-05-09T01:32:52.712Z,9.20
2023-05-09T01:37:56.211Z,9.73
2023-05-09T01:43:02.786Z,9.15
2023-05-09T01:48:08.158Z,9.50
2023-05-09T01:53:13.297Z,9.45
2023-05-09T01:58:18.352Z,9.15
2023-05-09T02:03:22.814Z,9.40
2023-05-09T02:08:26.506Z,9.75
2023-05-09T02:13:29.311Z,9.18
2023-05-09T02:18:42.840Z,9.18
2023-05-09T02:23:45.487Z,9.70
2023-05-09T02:28:48.595Z,9.15
2023-05-09T02:33:53.668Z,9.95
2023-05-09T02:38:56.772Z,9.85
2023-05-09T02:43:59.314Z,9.13
2023-05-09T02:49:01.913Z,9.13
2023-05-09T02:54:04.712Z,9.10
2023-05-09T02:59:08.520Z,9.02
2023-05-09T03:04:21.063Z,9.98
2023-05-09T03:09:24.924Z,9.32
2023-05-09T03:14:37.506Z,8.88
2023-05-09T03:19:40.101Z,10.57
2023-05-09T03:24:43.023Z,9.70
2023-05-09T03:29:45.647Z,9.05
2023-05-09T03:34:58.359Z,8.77
2023-05-09T03:40:00.918Z,9.48
2023-05-09T03:45:03.717Z,10.15
2023-05-09T03:50:07.125Z,9.98
2023-05-09T03:55:10.595Z,10.93
2023-05-09T04:00:13.529Z,10.50
2023-05-09T04:05:18.195Z,10.07
2023-05-09T04:10:20.847Z,10.63
2023-05-09T04:15:26.829Z,11.55
2023-05-09T04:20:30.295Z,12.43
2023-05-09T04:25:43.663Z,12.23
2023-05-09T04:30:46.820Z,12.68
2023-05-09T04:35:49.641Z,11.82
2023-05-09T04:40:52.720Z,12.00
2023-05-09T04:45:55.286Z,11.85
2023-05-09T04:50:58.210Z,11.70
2023-05-09T04:56:00.952Z,15.38
2023-05-09T05:01:03.700Z,43.15
2023-05-09T05:06:07.462Z,24.30
2023-05-09T05:11:10.562Z,20.20
2023-05-09T05:16:17.839Z,14.32
2023-05-09T05:21:20.673Z,11.95
2023-05-09T05:26:24.032Z,12.60
2023-05-09T05:31:26.631Z,12.95
2023-05-09T05:36:30.077Z,12.80
2023-05-09T05:41:32.865Z,12.02
2023-05-09T05:46:35.782Z,11.70
2023-05-09T05:51:39.490Z,11.25
2023-05-09T05:56:42.161Z,11.10
2023-05-09T06:01:45.958Z,10.18
2023-05-09T06:06:49.349Z,10.80
2023-05-09T06:11:53.182Z,10.00
2023-05-09T06:16:56.431Z,9.33
2023-05-09T06:21:59.331Z,10.27
2023-05-09T06:27:02.061Z,67.85
2023-05-09T06:32:04.956Z,81.75
2023-05-09T06:37:07.631Z,34.17
2023-05-09T06:42:11.151Z,15.27
2023-05-09T06:47:13.940Z,10.43
2023-05-09T06:52:17.238Z,8.30
2023-05-09T06:57:20.192Z,8.30
2023-05-09T07:02:22.889Z,8.43
2023-05-09T07:07:25.483Z,8.38
2023-05-09T07:12:28.037Z,7.45
2023-05-09T07:17:31.112Z,8.38
2023-05-09T07:22:36.350Z,7.40
2023-05-09T07:27:39.856Z,7.70
2023-05-09T07:32:42.471Z,7.30
2023-05-09T07:37:45.554Z,7.60
2023-05-09T07:42:58.150Z,7.57
2023-05-09T07:48:01.049Z,7.75
2023-05-09T07:53:03.863Z,7.70
2023-05-09T07:58:06.507Z,7.72
2023-05-09T08:03:09.705Z,7.03
2023-05-09T08:08:12.527Z,11.40
2023-05-09T08:13:25.257Z,22.13
2023-05-09T08:18:28.493Z,67.85
2023-05-09T08:23:31.338Z,21.58
2023-05-09T08:28:34.301Z,19.60
2023-05-09T08:33:41.880Z,8.10
2023-05-09T08:38:45.870Z,8.10
2023-05-09T08:43:49.830Z,8.80
2023-05-09T08:48:53.630Z,6.50
2023-05-09T08:53:56.351Z,6.87
2023-05-09T08:58:59.981Z,6.13
2023-05-09T09:04:06.489Z,6.77
2023-05-09T09:09:11.131Z,7.60
2023-05-09T09:14:21.368Z,6.38
2023-05-09T09:19:31.001Z,5.80
2023-05-09T09:24:35.425Z,7.28
2023-05-09T09:29:39.769Z,6.30
2023-05-09T09:34:52.294Z,5.80
2023-05-09T09:39:56.608Z,5.68
2023-05-09T09:45:11.477Z,5.72
2023-05-09T09:50:19.740Z,5.80
2023-05-09T09:55:23.704Z,5.50
2023-05-09T10:00:28.583Z,5.63
2023-05-09T10:05:32.277Z,5.60
2023-05-09T10:10:44.795Z,5.88
2023-05-09T10:15:53.625Z,5.88
2023-05-09T10:21:01.591Z,5.22
2023-05-09T10:26:12.358Z,4.60
2023-05-09T10:31:27.771Z,4.78
2023-05-09T10:36:32.032Z,4.55
2023-05-09T10:41:34.975Z,4.63
2023-05-09T10:46:38.265Z,4.53
2023-05-09T10:51:51.682Z,4.10
2023-05-09T10:56:54.848Z,4.10
2023-05-09T11:02:15.716Z,3.92
2023-05-09T11:07:25.446Z,3.35
2023-05-09T11:12:28.128Z,3.28
2023-05-09T11:17:33.252Z,3.10
2023-05-09T11:22:47.889Z,3.70
2023-05-09T11:27:51.035Z,3.25
2023-05-09T11:32:56.450Z,2.97
2023-05-09T11:38:07.076Z,2.50
2023-05-09T11:43:10.226Z,2.42
2023-05-09T11:48:12.797Z,2.33
2023-05-09T11:53:15.430Z,2.28
2023-05-09T11:58:18.199Z,2.17
2023-05-09T12:03:20.916Z,2.20
2023-05-09T12:08:25.792Z,2.22
2023-05-09T12:13:46.029Z,1.52
2023-05-09T12:18:52.535Z,1.35
2023-05-09T12:23:56.811Z,1.40
2023-05-09T12:28:59.658Z,1.40
2023-05-09T12:34:02.577Z,1.75
2023-05-09T12:39:15.423Z,1.52
2023-05-09T12:44:29.009Z,1.60
2023-05-09T12:49:32.988Z,1.67
2023-05-09T12:54:48.580Z,1.33
2023-05-09T12:59:51.761Z,1.50
2023-05-09T13:05:07.653Z,1.67
2023-05-09T13:10:24.506Z,1.73
2023-05-09T13:15:27.576Z,1.65
2023-05-09T13:20:31.036Z,1.40
2023-05-09T13:25:33.975Z,1.58
2023-05-09T13:30:36.699Z,1.42
2023-05-09T13:35:39.442Z,1.60
2023-05-09T13:40:47.477Z,1.55
2023-05-09T13:45:50.130Z,1.80
2023-05-09T13:50:52.995Z,1.50
2023-05-09T13:55:56.469Z,1.30
2023-05-09T14:00:59.135Z,1.35
2023-05-09T14:06:05.580Z,1.30
2023-05-09T14:11:10.109Z,1.40
2023-05-09T14:16:12.686Z,1.20
2023-05-09T14:21:16.337Z,1.42
2023-05-09T14:26:20.374Z,1.33
2023-05-09T14:31:23.146Z,1.58
2023-05-09T14:36:25.773Z,1.50
2023-05-09T14:41:28.291Z,2.13
2023-05-09T14:46:31.095Z,1.13
2023-05-09T14:51:34.279Z,1.40
2023-05-09T14:56:36.833Z,1.30
2023-05-09T15:01:39.762Z,1.33
2023-05-09T15:06:42.355Z,1.27
2023-05-09T15:11:48.843Z,1.20
2023-05-09T15:16:53.087Z,1.20
2023-05-09T15:21:55.641Z,1.35
2023-05-09T15:26:58.139Z,1.25
2023-05-09T15:32:01.906Z,1.40
2023-05-09T15:37:04.726Z,1.30
2023-05-09T15:42:18.455Z,1.40
2023-05-09T15:47:31.276Z,1.35
2023-05-09T15:52:34.266Z,1.17
2023-05-09T15:57:49.005Z,1.40
2023-05-09T16:02:52.163Z,1.50
2023-05-09T16:07:54.945Z,1.20
2023-05-09T16:12:57.703Z,1.75
2023-05-09T16:18:00.266Z,1.70
2023-05-09T16:23:02.803Z,1.50
2023-05-09T16:28:09.353Z,2.03
2023-05-09T16:33:19.976Z,1.25
2023-05-09T16:38:22.518Z,1.42
2023-05-09T16:43:25.190Z,1.70
2023-05-09T16:48:27.835Z,1.90
2023-05-09T16:53:30.442Z,1.23
2023-05-09T16:58:45.220Z,1.40
2023-05-09T17:03:49.264Z,1.83
2023-05-09T17:08:51.893Z,1.75
2023-05-09T17:13:55.065Z,2.65
2023-05-09T17:18:58.947Z,2.45
2023-05-09T17:24:02.875Z,1.98
2023-05-09T17:29:06.264Z,2.10
2023-05-09T17:34:18.878Z,3.78
2023-05-09T17:39:21.735Z,2.60
2023-05-09T17:44:25.082Z,2.20
2023-05-09T17:49:31.492Z,2.22
2023-05-09T17:54:34.070Z,2.00
2023-05-09T17:59:39.952Z,2.20
2023-05-09T18:04:45.561Z,3.03
2023-05-09T18:09:59.709Z,2.30
2023-05-09T18:15:03.022Z,2.13
2023-05-09T18:20:07.550Z,3.72
2023-05-09T18:25:10.656Z,4.28
2023-05-09T18:30:13.793Z,3.10
2023-05-09T18:35:16.884Z,2.50
2023-05-09T18:40:19.817Z,2.67
2023-05-09T18:45:22.397Z,2.38
2023-05-09T18:50:25.239Z,14.02
2023-05-09T18:55:27.790Z,4.45
2023-05-09T19:00:30.385Z,2.05
2023-05-09T19:05:32.999Z,2.00
2023-05-09T19:10:38.703Z,3.45
2023-05-09T19:15:51.286Z,3.50
2023-05-09T19:20:54.297Z,3.00
2023-05-09T19:26:06.815Z,2.90
2023-05-09T19:31:26.241Z,2.05
2023-05-09T19:36:28.980Z,2.20
2023-05-09T19:41:34.340Z,2.17
2023-05-09T19:46:38.926Z,5.45
2023-05-09T19:51:51.722Z,56.28
2023-05-09T19:56:54.375Z,68.72
2023-05-09T20:02:00.423Z,3.67
2023-05-09T20:07:03.880Z,2.50
2023-05-09T20:12:06.816Z,3.28
2023-05-09T20:17:09.424Z,6.05
2023-05-09T20:22:12.188Z,3.33
2023-05-09T20:27:14.776Z,2.53
2023-05-09T20:32:20.561Z,2.65
2023-05-09T20:37:23.125Z,2.30
2023-05-09T20:42:26.690Z,3.50
2023-05-09T20:47:29.217Z,3.55
2023-05-09T20:52:31.949Z,3.28
2023-05-09T20:57:34.636Z,2.67
2023-05-09T21:02:37.277Z,2.75
2023-05-09T21:07:39.875Z,2.72
2023-05-09T21:12:42.688Z,2.70
2023-05-09T21:17:45.529Z,2.20
2023-05-09T21:22:48.342Z,2.40
2023-05-09T21:27:51.273Z,2.60
2023-05-09T21:32:54.147Z,2.60
2023-05-09T21:37:57.045Z,2.78
2023-05-09T21:42:59.823Z,2.92
2023-05-09T21:48:02.496Z,2.38
2023-05-09T21:53:05.977Z,2.65
2023-05-09T21:58:08.912Z,2.70
2023-05-09T22:03:11.863Z,2.80
2023-05-09T22:08:14.852Z,2.47
2023-05-09T22:13:17.742Z,2.72
2023-05-09T22:18:20.328Z,2.72
2023-05-09T22:23:23.421Z,2.50
2023-05-09T22:28:36.147Z,2.60
2023-05-09T22:33:46.449Z,2.50
2023-05-09T22:38:48.960Z,2.63
2023-05-09T22:43:52.089Z,3.22
2023-05-09T22:49:00.989Z,3.00
2023-05-09T22:54:03.611Z,2.70
2023-05-09T22:59:07.256Z,3.53
2023-05-09T23:04:10.124Z,3.00
2023-05-09T23:09:12.860Z,3.10
2023-05-09T23:14:15.605Z,3.03
2023-05-09T23:19:18.099Z,2.95
2023-05-09T23:24:20.875Z,3.90
2023-05-09T23:29:23.682Z,10.68
2023-05-09T23:34:29.465Z,22.33
2023-05-09T23:39:32.752Z,8.32
2023-05-09T23:44:35.482Z,26.80
2023-05-09T23:49:38.078Z,10.70
2023-05-09T23:54:40.891Z,13.27
2023-05-09T23:59:43.687Z,6.18
